Time;durP1;ratioP1;P1;durP2;ratioP2;P2;SDS_P1;SDS_P2;PMS_P1;PMS_P2;Temp;Humidity;BMP_temperature;BMP_pressure;BME280_temperature;BME280_humidity;BME280_pressure;Samples;Min_cycle;Max_cycle;Signal;HPM_P1;HPM_P2
2022/11/08 00:14:53;;;;;;;11.52;5.95;;;;;;;8.80;63.98;100298.88;7794414;32;35757;-91
2022/11/08 00:19:09;;;;;;;12.27;5.97;;;;;;;8.68;64.54;100307.09;7794462;32;39294;-90
2022/11/08 00:23:26;;;;;;;12.13;5.60;;;;;;;8.69;64.26;100299.78;7794403;32;40744;-91
2022/11/08 00:27:42;;;;;;;10.85;6.12;;;;;;;8.54;64.49;100298.44;7793777;32;38661;-91
2022/11/08 00:31:58;;;;;;;13.98;5.90;;;;;;;8.74;63.33;100302.56;7767468;32;37262;-91
2022/11/08 00:36:14;;;;;;;12.77;6.43;;;;;;;8.88;63.03;100290.28;7793919;32;40022;-90
2022/11/08 00:40:30;;;;;;;12.05;5.90;;;;;;;8.72;63.71;100297.38;7793712;32;40126;-90
2022/11/08 00:44:46;;;;;;;11.02;5.87;;;;;;;8.62;64.30;100291.78;7793248;32;37653;-90
2022/11/08 00:49:03;;;;;;;10.52;5.50;;;;;;;8.92;63.13;100287.91;7793604;32;37001;-90
2022/11/08 00:53:19;;;;;;;11.10;4.93;;;;;;;8.88;63.08;100290.28;7793308;32;39260;-90
2022/11/08 00:57:36;;;;;;;13.02;6.30;;;;;;;8.90;63.29;100293.59;7793429;32;40032;-89
2022/11/08 01:02:12;;;;;;;16.87;6.68;;;;;;;8.62;65.36;100298.06;7792818;32;38169;-91
2022/11/08 01:06:28;;;;;;;12.88;6.78;;;;;;;8.60;65.84;100300.16;7793373;32;37087;-91
2022/11/08 01:10:46;;;;;;;12.13;6.65;;;;;;;8.60;65.34;100300.16;7793315;32;39383;-91
2022/11/08 01:15:02;;;;;;;15.63;6.55;;;;;;;8.70;64.45;100301.44;7793289;32;39986;-91
2022/11/08 01:19:18;;;;;;;12.55;6.35;;;;;;;8.34;65.18;100300.78;7792912;32;38376;-90
2022/11/08 01:23:35;;;;;;;13.90;6.60;;;;;;;8.35;64.49;100294.28;7779305;32;36797;-89
2022/11/08 01:27:51;;;;;;;14.27;6.37;;;;;;;8.38;63.83;100293.78;7793242;32;39368;-91
2022/11/08 01:32:07;;;;;;;11.88;5.97;;;;;;;8.53;63.12;100290.53;7793067;32;40037;-91
2022/11/08 01:36:25;;;;;;;14.27;6.80;;;;;;;8.37;64.02;100294.87;7779092;32;38057;-91
2022/11/08 01:40:45;;;;;;;12.68;6.78;;;;;;;8.54;63.82;100287.59;7779298;32;37315;-90
2022/11/08 01:45:08;;;;;;;14.45;6.40;;;;;;;8.54;63.78;100282.16;7778920;32;39268;-90
2022/11/08 01:49:42;;;;;;;352.80;19.17;;;;;;;8.24;64.35;100274.25;7779369;32;39808;-91
2022/11/08 01:54:00;;;;;;;134.73;12.02;;;;;;;7.11;67.27;100291.00;7779743;32;38662;-91
2022/11/08 01:58:23;;;;;;;14.87;5.22;;;;;;;7.76;65.86;100272.81;7779074;32;37265;-90
2022/11/08 02:02:42;;;;;;;44.78;6.82;;;;;;;7.47;65.83;100270.87;7779286;32;39472;-90
2022/11/08 02:06:59;;;;;;;9.15;5.28;;;;;;;7.62;65.35;100280.41;7779360;32;40921;-90
2022/11/08 02:11:17;;;;;;;9.95;4.97;;;;;;;7.66;65.02;100276.97;7778675;32;37984;-86
2022/11/08 02:15:33;;;;;;;10.95;5.18;;;;;;;7.39;65.07;100273.97;7778185;32;37193;-90
2022/11/08 02:19:50;;;;;;;11.12;5.50;;;;;;;7.40;64.47;100264.78;7792507;32;40109;-89
2022/11/08 02:24:10;;;;;;;12.88;5.40;;;;;;;7.55;64.02;100263.44;7792466;32;40724;-87
2022/11/08 02:28:26;;;;;;;11.45;5.43;;;;;;;7.80;63.35;100255.00;7778228;32;38394;-89
2022/11/08 02:32:43;;;;;;;10.27;5.30;;;;;;;7.62;64.15;100272.25;7792299;32;36810;-90
2022/11/08 02:37:00;;;;;;;8.45;4.93;;;;;;;7.73;63.81;100271.41;7778069;32;38969;-89
2022/11/08 02:41:16;;;;;;;22.77;5.25;;;;;;;7.39;65.72;100268.53;7792360;32;41026;-89
2022/11/08 02:45:33;;;;;;;17.62;4.97;;;;;;;7.38;65.84;100266.91;7792252;32;38439;-89
2022/11/08 02:49:49;;;;;;;20.27;5.03;;;;;;;7.55;65.76;100268.88;7792406;32;36755;-90
2022/11/08 02:54:05;;;;;;;9.90;5.47;;;;;;;7.65;65.30;100266.34;7792153;32;39772;-89
2022/11/08 02:58:22;;;;;;;26.00;5.60;;;;;;;7.50;65.50;100265.00;7777809;32;40791;-90
2022/11/08 03:02:38;;;;;;;9.45;5.03;;;;;;;7.52;65.17;100268.28;7791667;32;38688;-90
2022/11/08 03:06:54;;;;;;;23.00;5.70;;;;;;;7.23;66.21;100264.69;7792020;32;36972;-89
2022/11/08 03:11:10;;;;;;;18.92;5.70;;;;;;;7.39;65.71;100268.53;7792132;32;39720;-89
2022/11/08 03:15:27;;;;;;;11.73;5.65;;;;;;;7.28;66.27;100266.69;7791855;32;40468;-90
2022/11/08 03:19:43;;;;;;;9.82;4.50;;;;;;;7.25;65.88;100261.75;7777918;32;37881;-89
2022/11/08 03:23:59;;;;;;;10.45;5.68;;;;;;;7.44;64.94;100260.50;7791707;32;37838;-89
2022/11/08 03:28:16;;;;;;;13.25;5.10;;;;;;;7.49;64.27;100267.94;7790228;32;39316;-89
2022/11/08 03:32:37;;;;;;;8.00;4.40;;;;;;;7.57;64.00;100264.84;7791590;32;40732;-89
2022/11/08 03:36:54;;;;;;;7.93;4.62;;;;;;;7.72;63.75;100259.72;7791186;32;37868;-89
2022/11/08 03:41:10;;;;;;;8.55;4.93;;;;;;;7.39;64.63;100257.69;7791247;32;38070;-89
2022/11/08 03:45:26;;;;;;;7.85;4.55;;;;;;;7.57;64.26;100264.84;7791058;32;39251;-89
2022/11/08 03:49:42;;;;;;;15.32;5.22;;;;;;;7.47;64.47;100260.03;7790995;32;39851;-90
2022/11/08 03:53:58;;;;;;;23.02;4.95;;;;;;;7.27;65.52;100260.41;7790418;32;38446;-90
2022/11/08 03:58:14;;;;;;;9.20;4.75;;;;;;;7.28;66.00;100262.09;7790919;32;37251;-89
2022/11/08 04:02:31;;;;;;;7.80;4.37;;;;;;;7.32;65.86;100257.00;7790939;32;38906;-89
2022/11/08 04:06:47;;;;;;;13.88;5.43;;;;;;;7.19;65.86;100258.06;7790556;32;40815;-89
2022/11/08 04:15:38;;;;;;;14.57;4.60;;;;;;;7.08;65.77;100258.91;7790461;32;37058;-89
2022/11/08 04:24:29;;;;;;;6.93;4.35;;;;;;;6.84;66.95;100258.91;7789980;32;40020;-89
2022/11/08 04:28:45;;;;;;;16.62;5.85;;;;;;;7.02;66.67;100260.69;7790011;32;38691;-90
2022/11/08 04:33:03;;;;;;;8.85;5.00;;;;;;;7.23;65.98;100263.87;7789913;32;37895;-90
2022/11/08 04:37:19;;;;;;;15.52;5.32;;;;;;;7.26;65.89;100256.06;7776240;32;39341;-90
2022/11/08 04:41:35;;;;;;;30.67;6.20;;;;;;;7.29;65.94;100257.47;7793711;32;39980;-90
2022/11/08 04:45:51;;;;;;;22.95;5.32;;;;;;;7.38;65.99;100253.34;7793555;32;37955;-90
2022/11/08 04:50:08;;;;;;;12.98;5.78;;;;;;;7.25;67.09;100256.31;7793409;32;37168;-91
2022/11/08 04:54:24;;;;;;;67.18;7.62;;;;;;;7.57;66.31;100253.16;7793380;32;39380;-90
2022/11/08 04:58:42;;;;;;;30.50;6.32;;;;;;;7.55;66.14;100261.53;7793633;32;40692;-90
2022/11/08 05:03:00;;;;;;;15.20;6.07;;;;;;;7.25;67.61;100265.25;7793811;32;35427;-89
2022/11/08 05:07:16;;;;;;;14.60;8.60;;;;;;;7.30;67.63;100265.38;7779634;32;36284;-90
2022/11/08 05:11:32;;;;;;;14.82;8.30;;;;;;;7.66;66.91;100255.25;7793258;32;39362;-90
2022/11/08 05:15:48;;;;;;;15.43;8.10;;;;;;;7.79;66.64;100272.34;7793286;32;40156;-91
2022/11/08 05:24:39;;;;;;;14.75;7.15;;;;;;;7.49;67.43;100273.38;7793343;32;35664;-91
2022/11/08 05:28:56;;;;;;;34.40;7.72;;;;;;;7.80;66.24;100274.81;7779235;32;39338;-90
2022/11/08 05:33:14;;;;;;;13.13;7.18;;;;;;;7.68;66.65;100276.75;7779017;32;40888;-90
2022/11/08 05:37:30;;;;;;;25.52;8.35;;;;;;;7.79;66.28;100273.16;7792874;32;38468;-90
2022/11/08 05:41:46;;;;;;;32.42;8.98;;;;;;;7.58;66.91;100282.78;7792649;32;37826;-90
2022/11/08 05:46:02;;;;;;;26.23;9.32;;;;;;;7.79;66.01;100289.44;7792686;32;40072;-90
2022/11/08 05:50:18;;;;;;;17.92;8.73;;;;;;;7.73;66.09;100282.28;7791697;32;40811;-90
2022/11/08 05:54:34;;;;;;;41.28;10.30;;;;;;;7.83;66.04;100290.63;7792642;32;37806;-90
2022/11/08 05:58:50;;;;;;;33.15;9.98;;;;;;;7.32;67.97;100300.41;7792677;32;37018;-90
2022/11/08 06:03:07;;;;;;;16.23;9.25;;;;;;;7.81;66.19;100302.75;7792775;32;39967;-90
2022/11/08 06:07:23;;;;;;;50.28;10.45;;;;;;;7.73;66.77;100303.97;7778743;32;40873;-91
2022/11/08 06:11:39;;;;;;;17.12;9.73;;;;;;;7.68;66.67;100303.88;7777819;32;37783;-90
2022/11/08 06:15:58;;;;;;;23.30;10.15;;;;;;;7.79;66.24;100313.84;7792644;32;37099;-89
2022/11/08 06:20:14;;;;;;;17.30;9.70;;;;;;;7.60;66.85;100317.81;7778801;32;39384;-89
2022/11/08 06:24:30;;;;;;;21.70;9.43;;;;;;;7.48;66.98;100312.41;7792887;32;39652;-89
2022/11/08 06:28:46;;;;;;;23.08;9.40;;;;;;;7.66;66.90;100306.00;7792155;32;38355;-91
2022/11/08 06:33:03;;;;;;;26.80;10.27;;;;;;;7.59;67.16;100308.84;7792766;32;37925;-90
2022/11/08 06:37:19;;;;;;;35.03;11.35;;;;;;;7.64;67.05;100308.13;7792420;32;40052;-90
2022/11/08 06:41:35;;;;;;;23.05;11.12;;;;;;;7.30;68.63;100322.34;7792110;32;39987;-90
2022/11/08 06:45:51;;;;;;;23.70;10.90;;;;;;;7.64;67.94;100321.69;7791766;32;38956;-90
2022/11/08 06:50:07;;;;;;;26.58;11.32;;;;;;;7.63;68.26;100323.59;7791910;32;38359;-89
2022/11/08 06:54:24;;;;;;;19.02;10.65;;;;;;;7.76;68.24;100322.50;7791918;32;39054;-87
2022/11/08 06:58:41;;;;;;;20.15;11.23;;;;;;;8.04;67.50;100323.59;7791775;32;39887;-90
2022/11/08 07:03:02;;;;;;;19.98;10.32;;;;;;;8.14;67.32;100329.22;7791655;32;37936;-91
2022/11/08 07:07:18;;;;;;;21.23;11.57;;;;;;;8.14;67.68;100326.50;7791850;32;37306;-90
2022/11/08 07:11:34;;;;;;;22.92;11.07;;;;;;;8.45;66.29;100324.38;7791787;32;38977;-92
2022/11/08 07:15:51;;;;;;;18.75;11.05;;;;;;;8.21;66.76;100329.06;7791468;32;39495;-90
2022/11/08 07:20:07;;;;;;;23.92;11.82;;;;;;;8.18;67.45;100333.09;7791733;32;37721;-89
2022/11/08 07:24:23;;;;;;;29.00;14.02;;;;;;;7.86;68.74;100338.16;7791654;32;37070;-90
2022/11/08 07:28:40;;;;;;;35.90;13.18;;;;;;;8.14;68.26;100329.22;7791583;32;39268;-89
2022/11/08 07:32:57;;;;;;;35.65;12.95;;;;;;;7.99;68.51;100337.88;7791399;32;39955;-88
2022/11/08 07:37:13;;;;;;;18.05;11.23;;;;;;;8.13;68.35;100341.16;7791788;32;38046;-89
2022/11/08 07:41:29;;;;;;;24.67;13.02;;;;;;;8.03;70.77;100343.66;7777131;32;37099;-89
2022/11/08 07:45:51;;;;;;;18.33;11.55;;;;;;;8.13;70.12;100348.47;7791267;32;39373;-90
2022/11/08 07:50:08;;;;;;;22.83;12.80;;;;;;;8.50;68.96;100346.19;7790876;32;40734;-89
2022/11/08 07:54:24;;;;;;;24.42;13.82;;;;;;;8.42;68.51;100349.28;7789811;32;38187;-89
2022/11/08 07:58:40;;;;;;;32.90;13.07;;;;;;;7.96;69.35;100353.84;7787154;32;37150;-93
2022/11/08 08:02:58;;;;;;;18.58;12.37;;;;;;;8.16;69.02;100354.25;7768100;32;39672;-91
2022/11/08 08:07:15;;;;;;;18.52;12.73;;;;;;;8.56;67.82;100353.38;7762519;32;41938;-93
2022/11/08 08:11:31;;;;;;;22.45;12.10;;;;;;;8.72;67.82;100349.03;7740573;32;38573;-90
2022/11/08 08:15:48;;;;;;;22.83;12.77;;;;;;;8.41;68.02;100355.78;7764939;32;36716;-92
2022/11/08 08:20:06;;;;;;;24.65;13.25;;;;;;;8.78;68.08;100355.41;7765257;32;39029;-91
2022/11/08 08:24:22;;;;;;;21.90;13.35;;;;;;;8.45;69.88;100356.97;7781844;32;39985;-92
2022/11/08 08:28:38;;;;;;;21.55;13.75;;;;;;;8.93;67.58;100357.53;7789524;32;39208;-90
2022/11/08 08:33:11;;;;;;;23.50;13.52;;;;;;;8.79;67.86;100365.19;7789422;32;37266;-92
2022/11/08 08:37:43;;;;;;;27.70;15.05;;;;;;;8.82;68.49;100361.97;7779822;32;39978;-91
2022/11/08 08:41:59;;;;;;;39.33;15.93;;;;;;;9.35;66.64;100360.62;7792623;32;39877;-88
2022/11/08 08:46:16;;;;;;;27.65;13.70;;;;;;;9.08;66.49;100367.84;7793211;32;38074;-89
2022/11/08 08:50:33;;;;;;;26.00;14.13;;;;;;;9.36;65.18;100369.63;7778761;32;37913;-89
2022/11/08 08:54:49;;;;;;;26.52;14.52;;;;;;;9.10;66.41;100371.94;7793575;32;39633;-91
2022/11/08 08:59:06;;;;;;;25.23;14.77;;;;;;;9.06;67.11;100372.72;7778598;32;39820;-93
2022/11/08 09:03:42;;;;;;;34.80;14.27;;;;;;;9.17;67.11;100372.59;7791017;32;39140;-89
2022/11/08 09:07:58;;;;;;;25.35;13.98;;;;;;;9.49;66.40;100371.19;7793179;32;37410;-90
2022/11/08 09:12:14;;;;;;;25.92;15.18;;;;;;;9.27;67.40;100380.09;7793403;32;40106;-86
2022/11/08 09:16:31;;;;;;;21.77;13.38;;;;;;;9.36;67.68;100389.47;7793330;32;40580;-91
2022/11/08 09:20:47;;;;;;;24.55;12.80;;;;;;;9.65;67.56;100380.38;7793114;32;37605;-88
2022/11/08 09:25:04;;;;;;;22.40;13.05;;;;;;;9.92;66.01;100385.91;7792236;32;37457;-85
2022/11/08 09:29:20;;;;;;;27.62;13.77;;;;;;;9.93;66.15;100379.37;7779126;32;39368;-89
2022/11/08 09:33:37;;;;;;;20.60;12.48;;;;;;;9.51;67.40;100378.00;7792816;32;41171;-86
2022/11/08 09:37:54;;;;;;;25.50;12.75;;;;;;;9.35;68.04;100368.81;7792766;32;38719;-86
2022/11/08 09:42:29;;;;;;;28.17;13.60;;;;;;;9.84;66.85;100367.28;7793044;32;37382;-86
2022/11/08 09:46:57;;;;;;;19.67;11.88;;;;;;;9.93;66.16;100368.50;7792989;32;39305;-86
2022/11/08 09:51:17;;;;;;;22.13;12.23;;;;;;;10.25;66.48;100367.78;7779440;32;39866;-87
2022/11/08 09:55:52;;;;;;;20.50;11.98;;;;;;;10.36;65.97;100363.28;7792806;32;37750;-88
2022/11/08 10:00:11;;;;;;;21.62;12.43;;;;;;;9.93;68.14;100376.66;7780288;32;37742;-86
2022/11/08 10:04:30;;;;;;;22.35;12.25;;;;;;;10.40;66.87;100361.69;7778952;32;39257;-85
2022/11/08 10:08:57;;;;;;;24.20;11.98;;;;;;;10.38;66.44;100356.50;7778858;32;39329;-86
2022/11/08 10:13:32;;;;;;;20.40;11.70;;;;;;;10.71;65.27;100351.94;7779481;32;38069;-86
2022/11/08 10:18:09;;;;;;;22.58;12.60;;;;;;;10.85;64.12;100352.31;7780251;32;37709;-88
2022/11/08 10:23:02;;;;;;;27.92;12.57;;;;;;;10.92;65.03;100338.44;7792447;32;39333;-87
2022/11/08 10:27:32;;;;;;;23.92;11.73;;;;;;;11.24;64.31;100339.22;7782897;32;39747;-87
2022/11/08 10:32:02;;;;;;;23.42;12.15;;;;;;;11.24;64.09;100331.03;7779275;32;38088;-87
2022/11/08 10:36:33;;;;;;;54.47;13.85;;;;;;;11.61;63.21;100335.63;7791540;32;37310;-87
2022/11/08 10:40:59;;;;;;;25.37;13.27;;;;;;;11.56;63.65;100329.34;7792165;32;39287;-88
2022/11/08 10:45:16;;;;;;;21.50;11.90;;;;;;;11.64;64.20;100326.06;7792001;32;41010;-88
2022/11/08 10:49:42;;;;;;;26.20;12.40;;;;;;;11.96;62.62;100319.69;7791514;32;38705;-88
2022/11/08 10:53:59;;;;;;;21.90;11.95;;;;;;;11.94;62.49;100316.41;7778219;32;38259;-88
2022/11/08 10:58:37;;;;;;;23.70;12.52;;;;;;;12.02;61.46;100310.41;7778212;32;39305;-87
2022/11/08 11:03:00;;;;;;;25.67;12.65;;;;;;;12.25;61.00;100308.31;7792013;32;39804;-88
2022/11/08 11:07:35;;;;;;;23.48;12.98;;;;;;;12.32;61.21;100306.94;7777251;32;38823;-87
2022/11/08 11:11:59;;;;;;;23.90;13.25;;;;;;;11.95;61.83;100307.97;7791160;32;37030;-87
2022/11/08 11:16:15;;;;;;;23.35;13.25;;;;;;;13.07;60.18;100300.94;7775571;32;39282;-88
2022/11/08 11:20:31;;;;;;;25.17;13.88;;;;;;;12.99;59.68;100298.75;7776720;32;40873;-87
2022/11/08 11:24:51;;;;;;;24.73;13.52;;;;;;;13.29;59.49;100302.53;7779529;32;384444;-87
2022/11/08 11:29:31;;;;;;;26.52;13.77;;;;;;;13.27;59.02;100280.09;7771807;32;37293;-87
2022/11/08 11:33:47;;;;;;;26.27;13.70;;;;;;;14.17;56.85;100283.84;7787164;32;39105;-85
2022/11/08 11:38:09;;;;;;;24.35;12.50;;;;;;;14.62;56.20;100285.47;7790493;32;40797;-83
2022/11/08 11:42:26;;;;;;;23.12;13.32;;;;;;;15.21;55.83;100269.00;7776089;32;37976;-83
2022/11/08 11:47:04;;;;;;;20.73;12.90;;;;;;;15.66;53.58;100268.75;7734497;32;39049;-84
2022/11/08 11:51:24;;;;;;;21.87;13.48;;;;;;;16.11;50.65;100264.63;7733660;32;40032;-87
2022/11/08 11:56:16;;;;;;;24.05;14.73;;;;;;;15.34;52.73;100257.31;7734470;32;39542;-86
2022/11/08 12:00:34;;;;;;;27.92;14.13;;;;;;;16.14;51.51;100253.03;7733586;32;38019;-88
2022/11/08 12:05:13;;;;;;;27.45;15.13;;;;;;;16.59;50.12;100244.34;7734600;32;36136;-86
2022/11/08 12:09:56;;;;;;;23.80;14.00;;;;;;;16.63;50.02;100252.81;7734830;32;38904;-91
2022/11/08 12:14:25;;;;;;;27.87;14.00;;;;;;;16.84;48.42;100243.09;7724270;32;39654;-93
2022/11/08 12:19:12;;;;;;;22.30;13.13;;;;;;;17.45;48.27;100237.53;7735719;32;37807;-91
2022/11/08 12:23:57;;;;;;;24.60;14.13;;;;;;;17.99;45.91;100230.34;7732757;32;37608;-88
2022/11/08 12:28:41;;;;;;;26.45;14.13;;;;;;;17.76;46.40;100234.13;7735920;32;39407;-87
2022/11/08 12:33:20;;;;;;;23.55;14.48;;;;;;;18.19;44.57;100223.50;7735754;32;40193;-90
2022/11/08 12:38:10;;;;;;;28.95;14.13;;;;;;;18.36;44.51;100225.59;7735318;32;38070;-87
2022/11/08 12:42:54;;;;;;;24.50;13.98;;;;;;;18.20;44.69;100221.59;7733161;32;36896;-92
2022/11/08 12:47:29;;;;;;;26.92;14.65;;;;;;;17.93;45.16;100217.78;7734490;32;39325;-93
2022/11/08 12:52:04;;;;;;;27.62;16.12;;;;;;;17.95;45.94;100218.28;7720826;32;39829;-91
2022/11/08 12:56:53;;;;;;;28.83;14.95;;;;;;;17.72;47.46;100216.59;7734393;32;38097;-88
2022/11/08 13:01:14;;;;;;;29.75;16.27;;;;;;;18.05;46.63;100210.91;7733685;32;37298;-89
2022/11/08 13:05:41;;;;;;;29.15;17.77;;;;;;;18.11;46.83;100206.87;7737350;32;39840;-91
2022/11/08 13:10:28;;;;;;;29.80;17.35;;;;;;;18.54;45.07;100203.63;7737670;32;40623;-89
2022/11/08 13:14:45;;;;;;;27.98;16.35;;;;;;;18.37;46.34;100216.19;7739265;32;37691;-87
2022/11/08 13:19:04;;;;;;;32.00;16.35;;;;;;;18.89;44.85;100209.41;7739158;32;37406;-86
2022/11/08 13:23:29;;;;;;;26.85;16.37;;;;;;;18.56;46.39;100201.38;7739117;32;40410;-88
2022/11/08 13:27:47;;;;;;;30.88;17.92;;;;;;;18.31;46.87;100209.16;7737915;32;40120;-87
2022/11/08 13:32:07;;;;;;;29.45;16.73;;;;;;;18.64;46.39;100208.06;7738931;32;38335;-89
2022/11/08 13:36:42;;;;;;;28.90;17.12;;;;;;;18.94;45.35;100212.03;7738939;32;37216;-86
2022/11/08 13:41:07;;;;;;;30.95;17.65;;;;;;;18.86;45.71;100210.81;7738876;32;40228;-88
2022/11/08 13:45:32;;;;;;;28.27;17.05;;;;;;;19.10;44.24;100204.91;7772257;32;40883;-86
2022/11/08 13:49:48;;;;;;;32.20;17.55;;;;;;;19.00;44.24;100204.41;7792800;32;38865;-86
2022/11/08 13:54:30;;;;;;;30.92;16.90;;;;;;;19.33;43.65;100199.31;7792751;32;37318;-89
2022/11/08 13:58:46;;;;;;;29.40;16.67;;;;;;;19.74;43.05;100183.47;7792850;32;39346;-88
2022/11/08 14:03:23;;;;;;;31.58;17.40;;;;;;;20.12;41.73;100189.19;7792120;32;39603;-89
2022/11/08 14:07:45;;;;;;;28.65;16.40;;;;;;;21.32;39.13;100187.59;7779616;32;38103;-88
2022/11/08 14:12:25;;;;;;;29.45;15.80;;;;;;;22.86;36.11;100173.88;7775832;32;37651;-88
2022/11/08 14:16:48;;;;;;;29.85;16.20;;;;;;;22.59;36.11;100169.75;7778944;32;39016;-88
2022/11/08 14:21:05;;;;;;;31.05;17.40;;;;;;;22.26;36.77;100178.88;7764686;32;39610;-89
2022/11/08 14:25:30;;;;;;;29.98;16.42;;;;;;;23.18;35.03;100160.25;7778739;32;38065;-88
2022/11/08 14:29:56;;;;;;;34.38;16.92;;;;;;;22.04;36.62;100165.38;7779391;32;36887;-88
2022/11/08 14:34:33;;;;;;;29.23;17.35;;;;;;;22.44;35.83;100159.34;7779563;32;39016;-87
2022/11/08 14:39:09;;;;;;;29.33;17.08;;;;;;;21.82;37.10;100169.31;7778952;32;40739;-88
2022/11/08 14:43:26;;;;;;;33.58;18.40;;;;;;;21.11;38.66;100168.09;7780405;32;38685;-88
2022/11/08 14:47:43;;;;;;;29.75;16.45;;;;;;;19.79;41.21;100173.06;7778194;32;37244;-84
2022/11/08 14:52:25;;;;;;;30.98;17.17;;;;;;;19.53;41.87;100159.19;7775818;32;39440;-86
2022/11/08 14:56:43;;;;;;;28.73;16.83;;;;;;;19.26;42.46;100161.06;7760310;32;39822;-85
2022/11/08 15:01:02;;;;;;;30.62;15.65;;;;;;;18.15;44.97;100174.81;7765538;32;37958;-88
2022/11/08 15:05:30;;;;;;;27.05;15.13;;;;;;;17.65;45.60;100184.72;7764505;32;38004;-87
2022/11/08 15:09:47;;;;;;;26.12;15.30;;;;;;;16.44;48.83;100184.88;7763973;32;39577;-87
2022/11/08 15:14:06;;;;;;;30.48;15.55;;;;;;;15.82;50.50;100187.78;7762972;32;39918;-87
2022/11/08 15:18:36;;;;;;;28.08;15.63;;;;;;;14.82;53.52;100191.16;7762420;32;37458;-87
2022/11/08 15:22:52;;;;;;;28.17;15.60;;;;;;;14.01;55.99;100198.16;7763347;32;37429;-87
2022/11/08 15:27:15;;;;;;;31.52;15.88;;;;;;;13.68;56.97;100190.41;7764105;32;39556;-87
2022/11/08 15:31:39;;;;;;;27.17;15.18;;;;;;;13.15;58.71;100192.78;7762956;32;39907;-88
2022/11/08 15:35:57;;;;;;;29.67;15.88;;;;;;;12.99;59.20;100202.97;7762708;32;38858;-88
2022/11/08 15:40:20;;;;;;;28.27;16.60;;;;;;;12.18;61.82;100205.50;7763714;32;37182;-88
2022/11/08 15:44:55;;;;;;;33.33;17.05;;;;;;;12.17;61.70;100205.78;7762601;32;39401;-88
2022/11/08 15:49:20;;;;;;;38.10;19.60;;;;;;;11.87;62.83;100215.56;7762211;32;39881;-89
2022/11/08 15:53:36;;;;;;;37.35;18.27;;;;;;;11.48;64.21;100215.97;7750844;32;39059;-87
2022/11/08 15:57:53;;;;;;;38.63;18.75;;;;;;;11.74;63.36;100207.88;7763656;32;37216;-87
2022/11/08 16:02:12;;;;;;;36.47;18.40;;;;;;;11.42;64.54;100208.88;7763322;32;39379;-88
2022/11/08 16:06:29;;;;;;;40.58;21.15;;;;;;;11.27;64.97;100202.22;7762046;32;40507;-88
2022/11/08 16:10:48;;;;;;;38.05;19.42;;;;;;;10.88;66.30;100207.22;7762902;32;39928;-89
2022/11/08 16:15:05;;;;;;;36.85;20.30;;;;;;;10.61;67.38;100202.69;7763446;32;37794;-88
2022/11/08 16:19:23;;;;;;;37.65;20.17;;;;;;;10.45;67.94;100204.50;7762814;32;40103;-89
2022/11/08 16:23:40;;;;;;;39.58;21.20;;;;;;;10.44;68.08;100213.72;7762646;32;40241;-88
2022/11/08 16:28:05;;;;;;;41.05;20.27;;;;;;;10.53;67.54;100223.06;7762592;32;39185;-87
2022/11/08 16:32:32;;;;;;;38.58;20.55;;;;;;;10.20;68.78;100223.31;7761190;32;37256;-88
2022/11/08 16:36:49;;;;;;;39.55;20.62;;;;;;;10.24;68.69;100216.25;7765759;32;39429;-88
2022/11/08 16:41:05;;;;;;;38.92;19.27;;;;;;;9.82;70.40;100227.84;7765988;32;39691;-90
2022/11/08 16:45:23;;;;;;;42.47;21.48;;;;;;;10.01;70.39;100225.59;7766206;32;38030;-90
2022/11/08 16:49:59;;;;;;;39.45;20.30;;;;;;;10.04;69.47;100230.53;7764704;32;37803;-88
2022/11/08 16:54:22;;;;;;;44.17;19.73;;;;;;;10.09;69.00;100231.41;7764876;32;39301;-87
2022/11/08 16:58:39;;;;;;;39.78;19.67;;;;;;;10.27;68.49;100229.38;7765883;32;40515;-88
2022/11/08 17:02:55;;;;;;;39.00;19.00;;;;;;;10.00;68.96;100226.66;7765378;32;38134;-90
2022/11/08 17:07:11;;;;;;;39.80;19.48;;;;;;;10.14;68.80;100227.88;7765911;32;38075;-90
2022/11/08 17:11:29;;;;;;;36.70;19.87;;;;;;;10.23;68.38;100223.63;7764260;32;39369;-89
2022/11/08 17:15:46;;;;;;;33.53;18.10;;;;;;;10.08;68.68;100232.47;7764794;32;40715;-90
2022/11/08 17:20:03;;;;;;;38.28;18.77;;;;;;;9.80;69.80;100232.72;7764191;32;37822;-91
2022/11/08 17:24:19;;;;;;;39.53;19.10;;;;;;;10.03;69.20;100235.12;7765219;32;37176;-89
2022/11/08 17:28:37;;;;;;;35.75;18.40;;;;;;;9.85;69.90;100238.19;7763039;32;39361;-90
2022/11/08 17:32:53;;;;;;;42.05;21.02;;;;;;;9.79;69.63;100242.78;7778837;32;40766;-89
2022/11/08 17:37:09;;;;;;;39.60;18.83;;;;;;;9.56;71.12;100257.50;7793935;32;38170;-90
2022/11/08 17:41:26;;;;;;;36.55;19.00;;;;;;;9.96;69.91;100261.75;7781445;32;37182;-90
2022/11/08 17:45:42;;;;;;;38.30;19.77;;;;;;;10.14;69.19;100257.84;7766039;32;39768;-89
2022/11/08 17:49:59;;;;;;;39.50;19.90;;;;;;;10.20;68.94;100256.81;7766307;32;40096;-89
2022/11/08 17:54:15;;;;;;;35.63;18.75;;;;;;;10.08;69.26;100265.16;7766794;32;38546;-90
2022/11/08 17:58:32;;;;;;;41.25;19.37;;;;;;;10.30;68.81;100261.56;7766630;32;37853;-89
2022/11/08 18:02:49;;;;;;;40.88;18.70;;;;;;;10.44;68.19;100268.25;7739636;32;40020;-90
2022/11/08 18:07:05;;;;;;;41.03;19.35;;;;;;;10.25;68.70;100258.78;7778434;32;40002;-89
2022/11/08 18:11:22;;;;;;;36.30;17.98;;;;;;;10.25;68.70;100269.69;7778908;32;38777;-89
2022/11/08 18:15:38;;;;;;;43.03;17.73;;;;;;;10.41;68.18;100260.59;7778873;32;38162;-88
2022/11/08 18:19:54;;;;;;;38.80;19.33;;;;;;;10.43;68.37;100261.16;7792461;32;39475;-88
2022/11/08 18:24:11;;;;;;;37.70;19.05;;;;;;;10.20;69.06;100253.28;7792765;32;40546;-90
2022/11/08 18:28:28;;;;;;;37.30;18.58;;;;;;;10.20;69.13;100266.91;7792055;32;38695;-89
2022/11/08 18:32:44;;;;;;;35.45;18.75;;;;;;;10.06;69.71;100248.25;7792169;32;37288;-89
2022/11/08 18:37:00;;;;;;;34.30;18.12;;;;;;;10.35;68.97;100253.47;7792301;32;40279;-88
2022/11/08 18:41:24;;;;;;;34.33;17.87;;;;;;;10.40;68.89;100250.78;7792109;32;39591;-88
2022/11/08 18:45:41;;;;;;;33.47;17.20;;;;;;;10.59;68.19;100259.41;7792330;32;37684;-89
2022/11/08 18:50:00;;;;;;;31.35;16.70;;;;;;;10.40;69.08;100266.28;7791764;32;36930;-87
2022/11/08 18:54:17;;;;;;;34.80;17.35;;;;;;;10.47;68.91;100267.75;7778407;32;40065;-89
2022/11/08 18:58:34;;;;;;;31.25;17.00;;;;;;;10.38;69.05;100263.00;7791982;32;39848;-89
2022/11/08 19:02:50;;;;;;;30.62;16.45;;;;;;;10.28;69.47;100266.44;7778002;32;38070;-88
2022/11/08 19:07:06;;;;;;;36.75;17.73;;;;;;;10.30;69.62;100261.56;7792386;32;37426;-89
2022/11/08 19:11:23;;;;;;;31.45;16.60;;;;;;;10.61;68.76;100259.12;7791736;32;39019;-88
2022/11/08 19:15:42;;;;;;;34.75;17.17;;;;;;;10.71;68.55;100264.66;7790529;32;42145;-91
2022/11/08 19:19:58;;;;;;;34.50;18.08;;;;;;;10.56;68.46;100259.09;7792006;32;38008;-90
2022/11/08 19:24:15;;;;;;;36.17;17.67;;;;;;;10.42;69.24;100258.69;7791965;32;37710;-91
2022/11/08 19:28:34;;;;;;;35.28;17.73;;;;;;;10.49;69.32;100254.66;7792051;32;39888;-93
2022/11/08 19:32:50;;;;;;;44.83;18.77;;;;;;;10.33;69.91;100271.94;7778056;32;39929;-91
2022/11/08 19:37:07;;;;;;;42.47;18.95;;;;;;;10.30;70.33;100273.28;7777513;32;38563;-92
2022/11/08 19:41:26;;;;;;;37.08;19.42;;;;;;;10.20;70.51;100272.38;7777572;32;37496;-90
2022/11/08 19:45:43;;;;;;;32.38;17.98;;;;;;;10.45;69.63;100275.38;7777539;32;39819;-92
2022/11/08 19:50:07;;;;;;;39.13;18.75;;;;;;;10.18;70.64;100269.06;7778145;32;40794;-91
2022/11/08 19:54:25;;;;;;;35.50;18.23;;;;;;;10.44;70.22;100270.97;7777659;32;38223;-91
2022/11/08 19:58:42;;;;;;;43.25;19.30;;;;;;;10.34;70.58;100273.59;7777179;32;37937;-89
2022/11/08 20:02:58;;;;;;;46.10;20.80;;;;;;;10.24;71.36;100287.09;7777101;32;39446;-89
2022/11/08 20:07:15;;;;;;;44.45;20.17;;;;;;;10.30;70.58;100283.34;7789697;32;41059;-85
2022/11/08 20:11:35;;;;;;;47.60;20.80;;;;;;;9.80;73.14;100289.91;7792886;32;38058;-86
2022/11/08 20:15:51;;;;;;;45.25;21.02;;;;;;;10.22;71.45;100287.34;7794252;32;37282;-92
2022/11/08 20:20:08;;;;;;;41.67;19.62;;;;;;;10.40;71.01;100291.66;7780387;32;39297;-89
2022/11/08 20:24:24;;;;;;;44.40;20.60;;;;;;;10.28;71.61;100285.53;7791088;32;39596;-90